sensor_id;sensor_type;location;lat;lon;timestamp;pressure;altitude;pressure_sealevel;temperature
62180;BMP280;48172;53.374;10.722;2022-09-27T00:01:03;99411.06;;;20.80
62180;BMP280;48172;53.374;10.722;2022-09-27T00:03:30;99411.06;;;20.80
62180;BMP280;48172;53.374;10.722;2022-09-27T00:08:33;99412.31;;;20.79
62180;BMP280;48172;53.374;10.722;2022-09-27T00:11:02;99408.84;;;20.79
62180;BMP280;48172;53.374;10.722;2022-09-27T00:13:29;99402.66;;;20.78
62180;BMP280;48172;53.374;10.722;2022-09-27T00:15:58;99395.75;;;20.77
62180;BMP280;48172;53.374;10.722;2022-09-27T00:18:25;99406.63;;;20.77
62180;BMP280;48172;53.374;10.722;2022-09-27T00:20:52;99404.38;;;20.76
62180;BMP280;48172;53.374;10.722;2022-09-27T00:23:19;99394.28;;;20.76
62180;BMP280;48172;53.374;10.722;2022-09-27T00:25:55;99395.53;;;20.75
62180;BMP280;48172;53.374;10.722;2022-09-27T00:28:23;99387.38;;;20.75
62180;BMP280;48172;53.374;10.722;2022-09-27T00:30:49;99384.66;;;20.75
62180;BMP280;48172;53.374;10.722;2022-09-27T00:33:16;99383.16;;;20.74
62180;BMP280;48172;53.374;10.722;2022-09-27T00:35:43;99382.41;;;20.74
62180;BMP280;48172;53.374;10.722;2022-09-27T00:38:10;99387.38;;;20.75
62180;BMP280;48172;53.374;10.722;2022-09-27T00:40:36;99383.16;;;20.74
62180;BMP280;48172;53.374;10.722;2022-09-27T00:43:18;99377.72;;;20.74
62180;BMP280;48172;53.374;10.722;2022-09-27T00:45:52;99377.72;;;20.74
62180;BMP280;48172;53.374;10.722;2022-09-27T00:48:24;99372.03;;;20.72
62180;BMP280;48172;53.374;10.722;2022-09-27T00:50:57;99370.06;;;20.73
62180;BMP280;48172;53.374;10.722;2022-09-27T00:53:35;99374.28;;;20.74
62180;BMP280;48172;53.374;10.722;2022-09-27T00:56:09;99358.47;;;20.72
62180;BMP280;48172;53.374;10.722;2022-09-27T00:58:38;99359.97;;;20.73
62180;BMP280;48172;53.374;10.722;2022-09-27T01:01:08;99358.47;;;20.72
62180;BMP280;48172;53.374;10.722;2022-09-27T01:03:45;99365.38;;;20.73
62180;BMP280;48172;53.374;10.722;2022-09-27T01:06:16;99352.81;;;20.70
62180;BMP280;48172;53.374;10.722;2022-09-27T01:08:43;99350.84;;;20.71
62180;BMP280;48172;53.374;10.722;2022-09-27T01:17:01;99350.13;;;20.70
62180;BMP280;48172;53.374;10.722;2022-09-27T01:22:41;99343.91;;;20.70
62180;BMP280;48172;53.374;10.722;2022-09-27T01:30:49;99334.81;;;20.67
62180;BMP280;48172;53.374;10.722;2022-09-27T01:36:09;99333.31;;;20.66
62180;BMP280;48172;53.374;10.722;2022-09-27T01:39:07;99330.59;;;20.66
62180;BMP280;48172;53.374;10.722;2022-09-27T01:42:02;99324.91;;;20.64
62180;BMP280;48172;53.374;10.722;2022-09-27T01:44:43;99325.91;;;20.67
62180;BMP280;48172;53.374;10.722;2022-09-27T01:47:17;99318.72;;;20.63
62180;BMP280;48172;53.374;10.722;2022-09-27T01:49:54;99311.63;;;20.66
62180;BMP280;48172;53.374;10.722;2022-09-27T01:52:26;99306.94;;;20.67
62180;BMP280;48172;53.374;10.722;2022-09-27T01:54:57;99309.34;;;20.64
62180;BMP280;48172;53.374;10.722;2022-09-27T01:57:34;99306.66;;;20.64
62180;BMP280;48172;53.374;10.722;2022-09-27T02:00:05;99317.50;;;20.64
62180;BMP280;48172;53.374;10.722;2022-09-27T02:02:38;99311.34;;;20.64
62180;BMP280;48172;53.374;10.722;2022-09-27T02:05:07;99308.38;;;20.62
62180;BMP280;48172;53.374;10.722;2022-09-27T02:07:56;99314.03;;;20.64
62180;BMP280;48172;53.374;10.722;2022-09-27T02:10:31;99311.34;;;20.64
62180;BMP280;48172;53.374;10.722;2022-09-27T02:15:35;99301.00;;;20.62
62180;BMP280;48172;53.374;10.722;2022-09-27T02:18:14;99298.28;;;20.62
62180;BMP280;48172;53.374;10.722;2022-09-27T02:20:48;99299.03;;;20.63
62180;BMP280;48172;53.374;10.722;2022-09-27T02:23:38;99296.06;;;20.61
62180;BMP280;48172;53.374;10.722;2022-09-27T02:26:13;99297.53;;;20.62
62180;BMP280;48172;53.374;10.722;2022-09-27T02:28:59;99294.09;;;20.61
62180;BMP280;48172;53.374;10.722;2022-09-27T02:31:28;99297.53;;;20.62
62180;BMP280;48172;53.374;10.722;2022-09-27T02:34:00;99284.72;;;20.62
62180;BMP280;48172;53.374;10.722;2022-09-27T02:36:28;99278.53;;;20.62
62180;BMP280;48172;53.374;10.722;2022-09-27T02:38:55;99275.09;;;20.61
62180;BMP280;48172;53.374;10.722;2022-09-27T02:41:22;99275.56;;;20.60
62180;BMP280;48172;53.374;10.722;2022-09-27T02:43:53;99267.41;;;20.60
62180;BMP280;48172;53.374;10.722;2022-09-27T03:00:14;99262.50;;;20.58
62180;BMP280;48172;53.374;10.722;2022-09-27T03:03:04;99264.69;;;20.60
62180;BMP280;48172;53.374;10.722;2022-09-27T03:05:39;99262.50;;;20.58
62180;BMP280;48172;53.374;10.722;2022-09-27T03:08:08;99265.47;;;20.60
62180;BMP280;48172;53.374;10.722;2022-09-27T03:10:35;99260.78;;;20.61
62180;BMP280;48172;53.374;10.722;2022-09-27T03:13:02;99265.94;;;20.59
62180;BMP280;48172;53.374;10.722;2022-09-27T03:15:30;99254.38;;;20.58
62180;BMP280;48172;53.374;10.722;2022-09-27T03:17:57;99259.28;;;20.60
62180;BMP280;48172;53.374;10.722;2022-09-27T03:20:23;99258.53;;;20.59
62180;BMP280;48172;53.374;10.722;2022-09-27T03:22:50;99259.78;;;20.58
62180;BMP280;48172;53.374;10.722;2022-09-27T03:25:16;99251.13;;;20.60
62180;BMP280;48172;53.374;10.722;2022-09-27T03:27:43;99253.84;;;20.60
62180;BMP280;48172;53.374;10.722;2022-09-27T03:30:11;99244.97;;;20.59
62180;BMP280;48172;53.374;10.722;2022-09-27T03:32:43;99241.78;;;20.61
62180;BMP280;48172;53.374;10.722;2022-09-27T03:35:10;99239.53;;;20.59
62180;BMP280;48172;53.374;10.722;2022-09-27T03:37:38;99238.34;;;20.60
62180;BMP280;48172;53.374;10.722;2022-09-27T03:40:05;99238.81;;;20.59
62180;BMP280;48172;53.374;10.722;2022-09-27T03:42:32;99232.91;;;20.60
62180;BMP280;48172;53.374;10.722;2022-09-27T03:44:58;99237.34;;;20.58
62180;BMP280;48172;53.374;10.722;2022-09-27T03:47:25;99225.97;;;20.59
62180;BMP280;48172;53.374;10.722;2022-09-27T03:49:51;99220.56;;;20.59
62180;BMP280;48172;53.374;10.722;2022-09-27T03:52:18;99220.31;;;20.57
62180;BMP280;48172;53.374;10.722;2022-09-27T03:54:44;99223.78;;;20.58
62180;BMP280;48172;53.374;10.722;2022-09-27T03:57:11;99214.16;;;20.57
62180;BMP280;48172;53.374;10.722;2022-09-27T03:59:37;99215.38;;;20.56
62180;BMP280;48172;53.374;10.722;2022-09-27T04:02:04;99206.47;;;20.55
62180;BMP280;48172;53.374;10.722;2022-09-27T04:04:30;99209.47;;;20.57
62180;BMP280;48172;53.374;10.722;2022-09-27T04:06:57;99209.97;;;20.56
62180;BMP280;48172;53.374;10.722;2022-09-27T04:09:24;99212.69;;;20.56
62180;BMP280;48172;53.374;10.722;2022-09-27T04:11:50;99211.44;;;20.57
62180;BMP280;48172;53.374;10.722;2022-09-27T04:14:17;99210.72;;;20.56
62180;BMP280;48172;53.374;10.722;2022-09-27T04:16:43;99216.13;;;20.56
62180;BMP280;48172;53.374;10.722;2022-09-27T04:19:10;99214.16;;;20.57
62180;BMP280;48172;53.374;10.722;2022-09-27T04:21:36;99210.97;;;20.58
62180;BMP280;48172;53.374;10.722;2022-09-27T04:24:03;99211.91;;;20.55
62180;BMP280;48172;53.374;10.722;2022-09-27T04:26:30;99206.78;;;20.57
62180;BMP280;48172;53.374;10.722;2022-09-27T04:28:57;99210.72;;;20.56
62180;BMP280;48172;53.374;10.722;2022-09-27T04:31:24;99204.78;;;20.58
62180;BMP280;48172;53.374;10.722;2022-09-27T04:33:50;99205.28;;;20.56
62180;BMP280;48172;53.374;10.722;2022-09-27T04:36:19;99203.31;;;20.57
62180;BMP280;48172;53.374;10.722;2022-09-27T04:38:53;99204.53;;;20.56
62180;BMP280;48172;53.374;10.722;2022-09-27T04:41:20;99205.28;;;20.56
62180;BMP280;48172;53.374;10.722;2022-09-27T04:43:47;99206.03;;;20.57
62180;BMP280;48172;53.374;10.722;2022-09-27T04:46:13;99203.03;;;20.55
62180;BMP280;48172;53.374;10.722;2022-09-27T04:48:40;99207.25;;;20.56
62180;BMP280;48172;53.374;10.722;2022-09-27T04:51:08;99207.25;;;20.56
62180;BMP280;48172;53.374;10.722;2022-09-27T04:53:35;99203.31;;;20.57
62180;BMP280;48172;53.374;10.722;2022-09-27T04:56:01;99197.59;;;20.55
62180;BMP280;48172;53.374;10.722;2022-09-27T04:58:32;99202.56;;;20.56
62180;BMP280;48172;53.374;10.722;2022-09-27T05:01:00;99205.75;;;20.55
62180;BMP280;48172;53.374;10.722;2022-09-27T05:03:29;99205.28;;;20.56
62180;BMP280;48172;53.374;10.722;2022-09-27T05:05:57;99207.00;;;20.54
62180;BMP280;48172;53.374;10.722;2022-09-27T05:08:24;99201.06;;;20.55
62180;BMP280;48172;53.374;10.722;2022-09-27T05:10:50;99204.28;;;20.54
62180;BMP280;48172;53.374;10.722;2022-09-27T05:13:17;99205.75;;;20.55
62180;BMP280;48172;53.374;10.722;2022-09-27T05:15:43;99203.53;;;20.53
62180;BMP280;48172;53.374;10.722;2022-09-27T05:18:10;99212.44;;;20.54
62180;BMP280;48172;53.374;10.722;2022-09-27T05:20:36;99202.53;;;20.51
62180;BMP280;48172;53.374;10.722;2022-09-27T05:23:03;99204.03;;;20.52
62180;BMP280;48172;53.374;10.722;2022-09-27T05:25:30;99205.25;;;20.51
62180;BMP280;48172;53.374;10.722;2022-09-27T05:27:57;99207.00;;;20.54
62180;BMP280;48172;53.374;10.722;2022-09-27T05:30:25;99204.78;;;20.52
62180;BMP280;48172;53.374;10.722;2022-09-27T05:32:52;99212.44;;;20.54
62180;BMP280;48172;53.374;10.722;2022-09-27T05:35:20;99210.19;;;20.52
62180;BMP280;48172;53.374;10.722;2022-09-27T05:37:54;99211.69;;;20.53
62180;BMP280;48172;53.374;10.722;2022-09-27T05:40:21;99215.13;;;20.54
62180;BMP280;48172;53.374;10.722;2022-09-27T05:43:07;99214.13;;;20.51
62180;BMP280;48172;53.374;10.722;2022-09-27T05:45:34;99194.38;;;20.51
62180;BMP280;48172;53.374;10.722;2022-09-27T05:48:01;99204.50;;;20.50
62180;BMP280;48172;53.374;10.722;2022-09-27T05:50:27;99213.38;;;20.51
62180;BMP280;48172;53.374;10.722;2022-09-27T05:52:54;99204.78;;;20.52
62180;BMP280;48172;53.374;10.722;2022-09-27T05:55:21;99207.94;;;20.51
62180;BMP280;48172;53.374;10.722;2022-09-27T05:57:57;99207.22;;;20.50
62180;BMP280;48172;53.374;10.722;2022-09-27T06:00:25;99205.75;;;20.49
62180;BMP280;48172;53.374;10.722;2022-09-27T06:02:56;99210.19;;;20.52
62180;BMP280;48172;53.374;10.722;2022-09-27T06:05:25;99207.94;;;20.51
62180;BMP280;48172;53.374;10.722;2022-09-27T06:07:58;99203.78;;;20.50
62180;BMP280;48172;53.374;10.722;2022-09-27T06:10:27;99198.34;;;20.50
62180;BMP280;48172;53.374;10.722;2022-09-27T06:13:11;99200.31;;;20.49
62180;BMP280;48172;53.374;10.722;2022-09-27T06:15:41;99205.75;;;20.49
62180;BMP280;48172;53.374;10.722;2022-09-27T06:18:14;99205.00;;;20.49
62180;BMP280;48172;53.374;10.722;2022-09-27T06:20:43;99211.91;;;20.50
62180;BMP280;48172;53.374;10.722;2022-09-27T06:23:15;99205.00;;;20.49
62180;BMP280;48172;53.374;10.722;2022-09-27T06:25:41;99205.53;;;20.53
62180;BMP280;48172;53.374;10.722;2022-09-27T06:28:08;99207.50;;;20.52
62180;BMP280;48172;53.374;10.722;2022-09-27T06:30:41;99208.72;;;20.51
62180;BMP280;48172;53.374;10.722;2022-09-27T06:33:11;99209.69;;;20.48
62180;BMP280;48172;53.374;10.722;2022-09-27T06:35:38;99202.06;;;20.52
62180;BMP280;48172;53.374;10.722;2022-09-27T06:38:06;99198.34;;;20.50
62180;BMP280;48172;53.374;10.722;2022-09-27T06:40:34;99214.88;;;20.52
62180;BMP280;48172;53.374;10.722;2022-09-27T06:43:02;99210.19;;;20.52
62180;BMP280;48172;53.374;10.722;2022-09-27T06:45:29;99211.91;;;20.50
62180;BMP280;48172;53.374;10.722;2022-09-27T06:47:57;99216.84;;;20.51
62180;BMP280;48172;53.374;10.722;2022-09-27T06:50:24;99215.34;;;20.50
62180;BMP280;48172;53.374;10.722;2022-09-27T06:52:51;99218.78;;;20.51
62180;BMP280;48172;53.374;10.722;2022-09-27T06:55:17;99230.41;;;20.51
62180;BMP280;48172;53.374;10.722;2022-09-27T06:57:44;99230.66;;;20.53
62180;BMP280;48172;53.374;10.722;2022-09-27T07:00:29;99234.38;;;20.56
62180;BMP280;48172;53.374;10.722;2022-09-27T07:02:57;99235.88;;;20.57
62180;BMP280;48172;53.374;10.722;2022-09-27T07:05:27;99229.94;;;20.58
62180;BMP280;48172;53.374;10.722;2022-09-27T07:07:55;99239.81;;;20.61
62180;BMP280;48172;53.374;10.722;2022-09-27T07:10:28;99241.53;;;20.64
62180;BMP280;48172;53.374;10.722;2022-09-27T07:12:55;99236.84;;;20.65
62180;BMP280;48172;53.374;10.722;2022-09-27T07:15:21;99241.81;;;20.67
62180;BMP280;48172;53.374;10.722;2022-09-27T07:17:55;99238.88;;;20.70
62180;BMP280;48172;53.374;10.722;2022-09-27T07:20:24;99247.75;;;20.71
62180;BMP280;48172;53.374;10.722;2022-09-27T07:22:51;99249.94;;;20.72
62180;BMP280;48172;53.374;10.722;2022-09-27T07:25:18;99247.50;;;20.74
62180;BMP280;48172;53.374;10.722;2022-09-27T07:27:45;99255.16;;;20.76
62180;BMP280;48172;53.374;10.722;2022-09-27T07:30:12;99247.75;;;20.76
62180;BMP280;48172;53.374;10.722;2022-09-27T07:32:39;99252.69;;;20.78
62180;BMP280;48172;53.374;10.722;2022-09-27T07:35:07;99253.44;;;20.78
62180;BMP280;48172;53.374;10.722;2022-09-27T07:37:35;99253.69;;;20.80
62180;BMP280;48172;53.374;10.722;2022-09-27T07:40:05;99255.16;;;20.81
62180;BMP280;48172;53.374;10.722;2022-09-27T07:42:35;99263.06;;;20.79
62180;BMP280;48172;53.374;10.722;2022-09-27T07:45:07;99261.81;;;20.80
62180;BMP280;48172;53.374;10.722;2022-09-27T07:47:34;99267.50;;;20.82
62180;BMP280;48172;53.374;10.722;2022-09-27T07:50:04;99269.22;;;20.80
62180;BMP280;48172;53.374;10.722;2022-09-27T07:52:38;99269.97;;;20.80
62180;BMP280;48172;53.374;10.722;2022-09-27T07:55:05;99274.91;;;20.82
62180;BMP280;48172;53.374;10.722;2022-09-27T07:57:31;99278.09;;;20.80
62180;BMP280;48172;53.374;10.722;2022-09-27T07:59:58;99272.66;;;20.80
62180;BMP280;48172;53.374;10.722;2022-09-27T08:02:24;99271.22;;;20.79
62180;BMP280;48172;53.374;10.722;2022-09-27T08:04:51;99277.63;;;20.82
62180;BMP280;48172;53.374;10.722;2022-09-27T08:07:18;99280.81;;;20.80
62180;BMP280;48172;53.374;10.722;2022-09-27T08:09:44;99283.78;;;20.82
62180;BMP280;48172;53.374;10.722;2022-09-27T08:12:11;99281.06;;;20.82
62180;BMP280;48172;53.374;10.722;2022-09-27T08:14:37;99285.75;;;20.82
62180;BMP280;48172;53.374;10.722;2022-09-27T08:17:10;99282.78;;;20.80
62180;BMP280;48172;53.374;10.722;2022-09-27T08:19:36;99285.00;;;20.81
62180;BMP280;48172;53.374;10.722;2022-09-27T08:22:03;99285.00;;;20.81
62180;BMP280;48172;53.374;10.722;2022-09-27T08:24:29;99288.47;;;20.82
62180;BMP280;48172;53.374;10.722;2022-09-27T08:26:56;99293.41;;;20.83
62180;BMP280;48172;53.374;10.722;2022-09-27T08:29:22;99289.47;;;20.84
62180;BMP280;48172;53.374;10.722;2022-09-27T08:31:52;99296.13;;;20.83
62180;BMP280;48172;53.374;10.722;2022-09-27T08:34:19;99306.97;;;20.83
62180;BMP280;48172;53.374;10.722;2022-09-27T08:36:47;99294.88;;;20.84
62180;BMP280;48172;53.374;10.722;2022-09-27T08:39:14;99300.31;;;20.84
62180;BMP280;48172;53.374;10.722;2022-09-27T08:44:26;99298.34;;;20.85
62180;BMP280;48172;53.374;10.722;2022-09-27T08:47:24;99299.34;;;20.87
62180;BMP280;48172;53.374;10.722;2022-09-27T08:50:00;99303.28;;;20.86
62180;BMP280;48172;53.374;10.722;2022-09-27T08:52:39;99301.06;;;20.85
62180;BMP280;48172;53.374;10.722;2022-09-27T08:55:34;99301.81;;;20.85
62180;BMP280;48172;53.374;10.722;2022-09-27T08:58:12;99301.81;;;20.85
62180;BMP280;48172;53.374;10.722;2022-09-27T09:00:39;99304.03;;;20.87
62180;BMP280;48172;53.374;10.722;2022-09-27T09:03:16;99297.13;;;20.86
62180;BMP280;48172;53.374;10.722;2022-09-27T09:05:51;99302.81;;;20.88
62180;BMP280;48172;53.374;10.722;2022-09-27T09:08:34;99304.78;;;20.87
62180;BMP280;48172;53.374;10.722;2022-09-27T09:17:26;99319.78;;;20.88
62180;BMP280;48172;53.374;10.722;2022-09-27T09:20:15;99324.25;;;20.86
62180;BMP280;48172;53.374;10.722;2022-09-27T09:25:37;99310.47;;;20.89
62180;BMP280;48172;53.374;10.722;2022-09-27T09:33:33;99321.56;;;20.91
62180;BMP280;48172;53.374;10.722;2022-09-27T09:38:44;99323.53;;;20.91
62180;BMP280;48172;53.374;10.722;2022-09-27T09:41:39;99331.16;;;20.92
62180;BMP280;48172;53.374;10.722;2022-09-27T09:44:45;99336.88;;;20.94
62180;BMP280;48172;53.374;10.722;2022-09-27T09:47:20;99328.72;;;20.94
62180;BMP280;48172;53.374;10.722;2022-09-27T09:49:52;99330.94;;;20.90
62180;BMP280;48172;53.374;10.722;2022-09-27T09:52:22;99330.44;;;20.92
62180;BMP280;48172;53.374;10.722;2022-09-27T09:54:54;99331.16;;;20.92
62180;BMP280;48172;53.374;10.722;2022-09-27T09:57:24;99324.28;;;20.91
62180;BMP280;48172;53.374;10.722;2022-09-27T10:00:12;99318.09;;;20.91
62180;BMP280;48172;53.374;10.722;2022-09-27T10:02:42;99321.81;;;20.93
62180;BMP280;48172;53.374;10.722;2022-09-27T10:05:13;99333.88;;;20.92
62180;BMP280;48172;53.374;10.722;2022-09-27T10:07:40;99333.16;;;20.92
62180;BMP280;48172;53.374;10.722;2022-09-27T10:10:10;99338.59;;;20.92
62180;BMP280;48172;53.374;10.722;2022-09-27T10:12:38;99334.63;;;20.93
62180;BMP280;48172;53.374;10.722;2022-09-27T10:15:05;99337.84;;;20.91
62180;BMP280;48172;53.374;10.722;2022-09-27T10:17:36;99340.56;;;20.91
62180;BMP280;48172;53.374;10.722;2022-09-27T10:20:04;99339.06;;;20.90
62180;BMP280;48172;53.374;10.722;2022-09-27T10:22:38;99337.09;;;20.91
62180;BMP280;48172;53.374;10.722;2022-09-27T10:25:08;99337.09;;;20.91
62180;BMP280;48172;53.374;10.722;2022-09-27T10:27:49;99345.47;;;20.93
62180;BMP280;48172;53.374;10.722;2022-09-27T10:30:35;99348.19;;;20.93
62180;BMP280;48172;53.374;10.722;2022-09-27T10:33:06;99342.03;;;20.92
62180;BMP280;48172;53.374;10.722;2022-09-27T10:35:45;99343.78;;;20.95
62180;BMP280;48172;53.374;10.722;2022-09-27T10:38:32;99358.59;;;20.94
62180;BMP280;48172;53.374;10.722;2022-09-27T10:43:47;99353.91;;;20.95
62180;BMP280;48172;53.374;10.722;2022-09-27T10:49:07;99364.00;;;20.94
62180;BMP280;48172;53.374;10.722;2022-09-27T10:51:34;99359.34;;;20.95
62180;BMP280;48172;53.374;10.722;2022-09-27T10:54:01;99360.06;;;20.95
62180;BMP280;48172;53.374;10.722;2022-09-27T10:56:33;99362.28;;;20.97
62180;BMP280;48172;53.374;10.722;2022-09-27T10:59:00;99364.75;;;20.95
62180;BMP280;48172;53.374;10.722;2022-09-27T11:01:41;99353.91;;;20.95
62180;BMP280;48172;53.374;10.722;2022-09-27T11:04:18;99361.31;;;20.94
62180;BMP280;48172;53.374;10.722;2022-09-27T11:06:45;99365.00;;;20.97
62180;BMP280;48172;53.374;10.722;2022-09-27T11:09:18;99364.75;;;20.95
62180;BMP280;48172;53.374;10.722;2022-09-27T11:11:48;99366.97;;;20.96
62180;BMP280;48172;53.374;10.722;2022-09-27T11:14:23;99364.25;;;20.96
62180;BMP280;48172;53.374;10.722;2022-09-27T11:19:47;99369.22;;;20.98
62180;BMP280;48172;53.374;10.722;2022-09-27T11:22:27;99369.66;;;20.96
62180;BMP280;48172;53.374;10.722;2022-09-27T11:30:21;99374.88;;;20.94
62180;BMP280;48172;53.374;10.722;2022-09-27T11:33:06;99374.13;;;20.94
62180;BMP280;48172;53.374;10.722;2022-09-27T11:35:57;99374.13;;;20.94
62180;BMP280;48172;53.374;10.722;2022-09-27T11:39:01;99381.53;;;20.93
62180;BMP280;48172;53.374;10.722;2022-09-27T11:41:23;99385.72;;;20.94
62180;BMP280;48172;53.374;10.722;2022-09-27T11:46:39;99386.97;;;20.93
62180;BMP280;48172;53.374;10.722;2022-09-27T11:57:42;99370.91;;;20.90
62180;BMP280;48172;53.374;10.722;2022-09-27T12:09:33;99383.72;;;20.89
62180;BMP280;48172;53.374;10.722;2022-09-27T12:11:42;99377.56;;;20.89
62180;BMP280;48172;53.374;10.722;2022-09-27T12:16:58;99392.13;;;20.91
62180;BMP280;48172;53.374;10.722;2022-09-27T12:19:28;99378.56;;;20.91
62180;BMP280;48172;53.374;10.722;2022-09-27T12:22:00;99393.06;;;20.88
62180;BMP280;48172;53.374;10.722;2022-09-27T12:24:27;99384.22;;;20.88
62180;BMP280;48172;53.374;10.722;2022-09-27T12:27:04;99388.91;;;20.87
62180;BMP280;48172;53.374;10.722;2022-09-27T12:29:38;99396.31;;;20.87
62180;BMP280;48172;53.374;10.722;2022-09-27T12:32:15;99400.25;;;20.86
62180;BMP280;48172;53.374;10.722;2022-09-27T12:37:28;99396.31;;;20.87
62180;BMP280;48172;53.374;10.722;2022-09-27T12:40:24;99404.19;;;20.85
62180;BMP280;48172;53.374;10.722;2022-09-27T12:43:05;99395.31;;;20.84
62180;BMP280;48172;53.374;10.722;2022-09-27T13:02:08;99391.63;;;20.87
62180;BMP280;48172;53.374;10.722;2022-09-27T13:13:43;99396.56;;;20.89
62180;BMP280;48172;53.374;10.722;2022-09-27T13:16:11;99402.72;;;20.89
62180;BMP280;48172;53.374;10.722;2022-09-27T13:22:07;99409.34;;;20.88
62180;BMP280;48172;53.374;10.722;2022-09-27T13:29:48;99426.91;;;20.93
62180;BMP280;48172;53.374;10.722;2022-09-27T13:34:47;99428.88;;;20.92
62180;BMP280;48172;53.374;10.722;2022-09-27T13:37:51;99432.34;;;20.93
62180;BMP280;48172;53.374;10.722;2022-09-27T13:45:52;99441.72;;;20.92
62180;BMP280;48172;53.374;10.722;2022-09-27T13:48:30;99437.00;;;20.92
62180;BMP280;48172;53.374;10.722;2022-09-27T13:51:04;99441.00;;;20.91
62180;BMP280;48172;53.374;10.722;2022-09-27T13:53:37;99444.19;;;20.90
62180;BMP280;48172;53.374;10.722;2022-09-27T13:56:05;99442.22;;;20.90
62180;BMP280;48172;53.374;10.722;2022-09-27T13:58:44;99448.13;;;20.89
62180;BMP280;48172;53.374;10.722;2022-09-27T14:01:15;99448.88;;;20.89
62180;BMP280;48172;53.374;10.722;2022-09-27T14:03:47;99439.50;;;20.90
62180;BMP280;48172;53.374;10.722;2022-09-27T14:06:19;99440.72;;;20.89
62180;BMP280;48172;53.374;10.722;2022-09-27T14:08:53;99442.69;;;20.89
62180;BMP280;48172;53.374;10.722;2022-09-27T14:11:31;99443.44;;;20.89
62180;BMP280;48172;53.374;10.722;2022-09-27T14:13:59;99453.56;;;20.89
62180;BMP280;48172;53.374;10.722;2022-09-27T14:16:34;99446.38;;;20.86
62180;BMP280;48172;53.374;10.722;2022-09-27T14:19:02;99457.97;;;20.86
62180;BMP280;48172;53.374;10.722;2022-09-27T14:21:34;99467.88;;;20.89
62180;BMP280;48172;53.374;10.722;2022-09-27T14:24:25;99472.28;;;20.87
62180;BMP280;48172;53.374;10.722;2022-09-27T14:27:04;99470.06;;;20.85
62180;BMP280;48172;53.374;10.722;2022-09-27T14:29:36;99470.81;;;20.86
62180;BMP280;48172;53.374;10.722;2022-09-27T14:32:05;99475.50;;;20.85
62180;BMP280;48172;53.374;10.722;2022-09-27T14:34:34;99475.75;;;20.87
62180;BMP280;48172;53.374;10.722;2022-09-27T14:37:01;99476.25;;;20.86
62180;BMP280;48172;53.374;10.722;2022-09-27T14:39:56;99477.72;;;20.87
62180;BMP280;48172;53.374;10.722;2022-09-27T14:42:25;99478.94;;;20.86
62180;BMP280;48172;53.374;10.722;2022-09-27T14:44:58;99483.63;;;20.85
62180;BMP280;48172;53.374;10.722;2022-09-27T14:47:26;99478.19;;;20.85
62180;BMP280;48172;53.374;10.722;2022-09-27T14:52:33;99484.84;;;20.84
62180;BMP280;48172;53.374;10.722;2022-09-27T14:55:08;99493.75;;;20.85
62180;BMP280;48172;53.374;10.722;2022-09-27T14:57:35;99488.81;;;20.83
62180;BMP280;48172;53.374;10.722;2022-09-27T15:00:26;99490.03;;;20.82
62180;BMP280;48172;53.374;10.722;2022-09-27T15:02:58;99498.91;;;20.83
62180;BMP280;48172;53.374;10.722;2022-09-27T15:05:28;99495.00;;;20.84
62180;BMP280;48172;53.374;10.722;2022-09-27T15:08:02;99500.44;;;20.84
62180;BMP280;48172;53.374;10.722;2022-09-27T15:10:33;99498.91;;;20.83
62180;BMP280;48172;53.374;10.722;2022-09-27T15:13:02;99508.03;;;20.80
62180;BMP280;48172;53.374;10.722;2022-09-27T15:15:32;99512.97;;;20.81
62180;BMP280;48172;53.374;10.722;2022-09-27T15:18:01;99505.31;;;20.80
62180;BMP280;48172;53.374;10.722;2022-09-27T15:20:31;99509.03;;;20.82
62180;BMP280;48172;53.374;10.722;2022-09-27T15:23:03;99521.38;;;20.83
62180;BMP280;48172;53.374;10.722;2022-09-27T15:25:33;99515.94;;;20.83
62180;BMP280;48172;53.374;10.722;2022-09-27T15:30:34;99525.03;;;20.80
62180;BMP280;48172;53.374;10.722;2022-09-27T15:33:01;99521.09;;;20.81
62180;BMP280;48172;53.374;10.722;2022-09-27T15:35:30;99525.78;;;20.81
62180;BMP280;48172;53.374;10.722;2022-09-27T15:38:15;99529.72;;;20.80
62180;BMP280;48172;53.374;10.722;2022-09-27T15:45:57;99529.72;;;20.80
62180;BMP280;48172;53.374;10.722;2022-09-27T15:48:26;99531.72;;;20.79
62180;BMP280;48172;53.374;10.722;2022-09-27T15:50:53;99535.63;;;20.78
62180;BMP280;48172;53.374;10.722;2022-09-27T15:56:03;99536.38;;;20.79
62180;BMP280;48172;53.374;10.722;2022-09-27T15:58:33;99530.69;;;20.77
62180;BMP280;48172;53.374;10.722;2022-09-27T16:01:03;99532.19;;;20.78
62180;BMP280;48172;53.374;10.722;2022-09-27T16:03:33;99533.66;;;20.79
62180;BMP280;48172;53.374;10.722;2022-09-27T16:06:02;99537.59;;;20.78
62180;BMP280;48172;53.374;10.722;2022-09-27T16:08:29;99545.28;;;20.79
62180;BMP280;48172;53.374;10.722;2022-09-27T16:10:57;99545.75;;;20.78
62180;BMP280;48172;53.374;10.722;2022-09-27T16:13:25;99554.16;;;20.80
62180;BMP280;48172;53.374;10.722;2022-09-27T16:15:58;99546.22;;;20.76
62180;BMP280;48172;53.374;10.722;2022-09-27T16:18:25;99558.09;;;20.79
62180;BMP280;48172;53.374;10.722;2022-09-27T16:20:59;99549.22;;;20.78
62180;BMP280;48172;53.374;10.722;2022-09-27T16:23:25;99562.03;;;20.78
62180;BMP280;48172;53.374;10.722;2022-09-27T16:25:52;99560.53;;;20.77
62180;BMP280;48172;53.374;10.722;2022-09-27T16:28:18;99549.22;;;20.78
62180;BMP280;48172;53.374;10.722;2022-09-27T16:30:45;99555.84;;;20.77
62180;BMP280;48172;53.374;10.722;2022-09-27T16:33:13;99562.03;;;20.78
62180;BMP280;48172;53.374;10.722;2022-09-27T16:35:39;99559.81;;;20.76
62180;BMP280;48172;53.374;10.722;2022-09-27T16:38:09;99560.53;;;20.77
62180;BMP280;48172;53.374;10.722;2022-09-27T16:40:36;99559.06;;;20.76
62180;BMP280;48172;53.374;10.722;2022-09-27T16:43:03;99562.50;;;20.76
62180;BMP280;48172;53.374;10.722;2022-09-27T16:45:33;99567.47;;;20.78
62180;BMP280;48172;53.374;10.722;2022-09-27T16:48:00;99565.97;;;20.77
62180;BMP280;48172;53.374;10.722;2022-09-27T16:50:27;99569.91;;;20.76